KB6VSE Weather Reports


Display with metric or nautical units.
time (UTC)temp
F
wind
direction
speed
MPH
gust
MPH
rain 1hr
in
rain 24hr
in
rain mn
in
humidity
%
barometer
mb
20220624214627 90 0 0.0 7.0 0.00 0.00 0.00 27 1012.1
20220624213046 89 0 0.0 3.0 0.00 0.00 0.00 30 1012.2
20220624211552 89 0 0.0 5.0 0.00 0.00 0.00 29 1012.3
20220624210046 88 0 0.0 4.0 0.00 0.00 0.00 26 1012.4
20220624204557 87 0 0.0 5.0 0.00 0.00 0.00 33 1012.6
20220624203057 86 0 0.0 6.0 0.00 0.00 0.00 29 1012.8
20220624201609 86 0 0.0 3.0 0.00 0.00 0.00 31 1012.9
20220624200059 85 0 0.0 2.0 0.00 0.00 0.00 28 1013.1
20220624194604 84 0 0.0 7.0 0.00 0.00 0.00 31 1013.3
20220624193100 83 305 0.0 1.0 0.00 0.00 0.00 29 1013.4
20220624191554 82 0 0.0 4.0 0.00 0.00 0.00 34 1013.4
20220624190050 81 0 0.0 4.0 0.00 0.00 0.00 33 1013.6
20220624184606 80 0 0.0 10.0 0.00 0.00 0.00 33 1013.5
20220624183056 79 323 0.0 9.0 0.00 0.00 0.00 33 1013.5
20220624181602 78 0 0.0 10.0 0.00 0.00 0.00 35 1013.5
20220624180100 77 0 1.0 8.0 0.00 0.00 0.00 34 1013.7
20220624174556 75 0 0.0 4.0 0.00 0.00 0.00 43 1013.6
20220624173051 73 0 0.0 5.0 0.00 0.00 0.00 48 1013.7
20220624171544 72 0 0.0 0.0 0.00 0.00 0.00 57 1013.9
20220624170053 70 0 0.0 1.0 0.00 0.00 0.00 54 1014.3
20220624164545 68 0 0.0 0.0 0.00 0.00 0.00 63 1014.4
20220624163053 67 0 0.0 0.0 0.00 0.00 0.00 59 1014.6
20220624161547 66 0 0.0 0.0 0.00 0.00 0.00 60 1014.8
20220624160049 64 0 0.0 0.0 0.00 0.00 0.00 65 1014.8
20220624154557 62 0 0.0 0.0 0.00 0.00 0.00 67 1014.9
20220624153047 61 0 0.0 0.0 0.00 0.00 0.00 67 1014.9
20220624151550 59 0 0.0 0.0 0.00 0.00 0.00 66 1015.1
20220624150100 55 0 0.0 0.0 0.00 0.00 0.00 39 1015.1
20220624144553 51 0 0.0 0.0 0.00 0.00 0.00 100 1015.1
20220624143102 49 0 0.0 0.0 0.00 0.00 0.00 100 1015.2
20220624141549 49 0 0.0 0.0 0.00 0.00 0.00 1 1015.1
20220624140051 48 0 0.0 0.0 0.00 0.00 0.00 4 1015.2
20220624134604 48 0 0.0 0.0 0.00 0.00 0.00 6 1015.2
20220624133046 48 0 0.0 0.0 0.00 0.00 0.00 9 1015.1
20220624131549 48 0 0.0 0.0 0.00 0.00 0.00 10 1015.1
20220624130054 49 0 0.0 0.0 0.00 0.00 0.00 14 1015.1
20220624124554 49 0 0.0 0.0 0.00 0.00 0.00 18 1015.0
20220624123055 49 0 0.0 0.0 0.00 0.00 0.00 22 1015.0
20220624121548 50 0 0.0 0.0 0.00 0.00 0.00 26 1015.0
20220624120050 50 0 0.0 0.0 0.00 0.00 0.00 29 1015.1
20220624114555 51 0 0.0 0.0 0.00 0.00 0.00 35 1014.9
20220624113050 51 0 0.0 0.0 0.00 0.00 0.00 39 1014.9
20220624111546 52 0 0.0 0.0 0.00 0.00 0.00 42 1014.9
20220624110053 52 0 0.0 0.0 0.00 0.00 0.00 49 1015.0
20220624104555 53 0 0.0 0.0 0.00 0.00 0.00 53 1015.0
20220624103046 53 0 0.0 0.0 0.00 0.00 0.00 56 1015.2
20220624101549 54 0 0.0 0.0 0.00 0.00 0.00 59 1015.2
20220624100059 54 0 0.0 0.0 0.00 0.00 0.00 62 1015.3
20220624094551 55 0 0.0 0.0 0.00 0.00 0.00 64 1015.1
20220624093101 55 0 0.0 1.0 0.00 0.00 0.00 65 1015.2
20220624091547 55 0 0.0 0.0 0.00 0.00 0.00 66 1015.2
20220624090057 56 0 0.0 0.0 0.00 0.00 0.00 67 1015.2
20220624084554 56 0 0.0 2.0 0.00 0.00 0.00 68 1015.3
20220624083059 57 0 0.0 0.0 0.00 0.00 0.00 68 1015.3
20220624081552 57 0 0.0 0.0 0.00 0.00 0.00 68 1015.3
20220624080052 58 0 0.0 0.0 0.00 0.00 0.00 68 1015.4
20220624074549 59 0 0.0 0.0 0.00 0.00 0.00 68 1015.5
20220624073042 59 0 0.0 0.0 0.00 0.00 0.00 67 1015.7
20220624071554 60 0 0.0 3.0 0.00 0.00 0.00 67 1015.8
20220624070057 60 0 0.0 0.0 0.00 0.00 0.00 67 1015.7
20220624064549 61 0 0.0 0.0 0.00 0.00 0.00 67 1015.6
20220624063052 61 0 0.0 0.0 0.00 0.00 0.00 65 1015.5
20220624061600 62 0 0.0 3.0 0.00 0.00 0.00 64 1015.6
20220624060104 63 115 0.0 1.0 0.00 0.00 0.00 63 1015.5
20220624054601 64 0 0.0 1.0 0.00 0.00 0.00 62 1015.5
20220624053057 64 0 0.0 2.0 0.00 0.00 0.00 61 1015.5
20220624051554 65 0 0.0 4.0 0.00 0.00 0.00 62 1015.3
20220624050044 66 0 0.0 3.0 0.00 0.00 0.00 59 1015.0
20220624044546 67 221 0.0 4.0 0.00 0.00 0.00 57 1014.9
20220624043053 68 0 0.0 6.0 0.00 0.00 0.00 57 1014.9
20220624041559 69 0 0.0 6.0 0.00 0.00 0.00 55 1014.7
20220624040049 70 0 0.0 5.0 0.00 0.00 0.00 54 1014.5
20220624034550 72 0 0.0 2.0 0.00 0.00 0.00 51 1014.5
20220624033101 73 0 0.0 8.0 0.00 0.00 0.00 51 1014.3
20220624031552 75 0 0.0 3.0 0.00 0.00 0.00 47 1013.9
20220624030102 77 0 0.0 2.0 0.00 0.00 0.00 45 1013.9
20220624024552 79 0 0.0 3.0 0.00 0.00 0.00 43 1013.7
20220624023051 81 0 0.0 7.0 0.00 0.00 0.00 42 1013.5
20220624021553 82 0 0.0 1.0 0.00 0.00 0.00 40 1013.3
20220624020118 83 0 0.0 5.0 0.00 0.00 0.00 40 1013.1
20220624014555 84 0 0.0 4.0 0.00 0.00 0.00 38 1013.1
20220624013049 85 0 0.0 1.0 0.00 0.00 0.00 36 1013.1
20220624011546 86 0 0.0 5.0 0.00 0.00 0.00 36 1013.0
20220624010046 86 41 0.0 8.0 0.00 0.00 0.00 35 1012.8
20220624004555 87 0 1.0 10.0 0.00 0.00 0.00 37 1012.9
20220624003049 87 0 0.0 4.0 0.00 0.00 0.00 37 1013.0
20220624001605 88 40 0.0 7.0 0.00 0.00 0.00 36 1012.9
20220624000056 88 0 0.0 5.0 0.00 0.00 0.00 38 1012.8
20220623234554 88 0 0.0 8.0 0.00 0.00 0.00 37 1012.9
20220623233051 90 0 0.0 3.0 0.00 0.00 0.00 37 1012.8
20220623231547 92 0 0.0 9.0 0.00 0.00 0.00 35 1012.7
20220623230050 94 0 1.0 9.0 0.00 0.00 0.00 27 1012.2
20220623224608 94 315 0.0 3.0 0.00 0.00 0.00 26 1012.3
20220623223051 94 0 0.0 6.0 0.00 0.00 0.00 23 1012.3
20220623221552 94 0 0.0 6.0 0.00 0.00 0.00 25 1012.4
20220623220104 93 0 2.0 10.0 0.00 0.00 0.00 27 1012.4